createdAt,value
2023-04-12T00:00:44.886Z,13.20
2023-04-12T00:03:34.284Z,13.20
2023-04-12T00:06:25.364Z,13.20
2023-04-12T00:09:10.803Z,13.10
2023-04-12T00:11:58.120Z,13.10
2023-04-12T00:14:43.955Z,13.10
2023-04-12T00:17:29.375Z,13.10
2023-04-12T00:20:16.682Z,13.00
2023-04-12T00:23:02.478Z,12.90
2023-04-12T00:25:48.269Z,12.90
2023-04-12T00:28:33.875Z,12.80
2023-04-12T00:31:19.612Z,12.80
2023-04-12T00:34:05.162Z,12.80
2023-04-12T00:36:50.786Z,12.70
2023-04-12T00:39:36.355Z,12.60
2023-04-12T00:42:21.956Z,12.70
2023-04-12T00:45:08.398Z,12.60
2023-04-12T00:47:56.502Z,12.50
2023-04-12T00:50:44.798Z,12.50
2023-04-12T00:53:31.423Z,12.50
2023-04-12T00:56:16.972Z,12.50
2023-04-12T00:59:02.379Z,12.50
2023-04-12T01:01:48.124Z,12.40
2023-04-12T01:04:34.567Z,12.40
2023-04-12T01:07:45.313Z,12.40
2023-04-12T01:10:46.398Z,12.10
2023-04-12T01:13:36.059Z,12.10
2023-04-12T01:16:31.990Z,12.20
2023-04-12T01:19:17.875Z,12.30
2023-04-12T01:22:27.121Z,12.30
2023-04-12T01:25:12.730Z,12.30
2023-04-12T01:28:00.087Z,12.30
2023-04-12T01:30:46.665Z,12.30
2023-04-12T01:33:34.057Z,12.30
2023-04-12T01:36:21.416Z,12.20
2023-04-12T01:39:08.187Z,12.30
2023-04-12T01:41:54.024Z,12.30
2023-04-12T01:44:41.029Z,12.30
2023-04-12T01:47:27.419Z,12.30
2023-04-12T01:50:22.683Z,12.30
2023-04-12T01:53:08.982Z,12.40
2023-04-12T01:55:58.159Z,12.30
2023-04-12T01:58:44.252Z,12.30
2023-04-12T02:01:31.185Z,12.20
2023-04-12T02:04:18.546Z,12.10
2023-04-12T02:07:04.181Z,12.00
2023-04-12T02:09:50.368Z,12.00
2023-04-12T02:12:39.135Z,11.80
2023-04-12T02:15:24.641Z,11.80
2023-04-12T02:18:11.907Z,11.70
2023-04-12T02:20:57.705Z,11.50
2023-04-12T02:23:44.232Z,10.40
2023-04-12T02:26:30.446Z,11.60
2023-04-12T02:29:16.176Z,11.60
2023-04-12T02:32:01.631Z,11.60
2023-04-12T02:34:51.466Z,11.60
2023-04-12T02:37:39.132Z,11.50
2023-04-12T02:40:24.652Z,11.50
2023-04-12T02:43:10.987Z,11.60
2023-04-12T02:46:00.936Z,11.50
2023-04-12T02:48:47.733Z,11.40
2023-04-12T02:51:34.042Z,11.30
2023-04-12T02:54:21.228Z,11.20
2023-04-12T02:57:13.826Z,11.20
2023-04-12T03:00:07.057Z,11.10
2023-04-12T03:03:01.565Z,11.10
2023-04-12T03:05:48.719Z,11.20
2023-04-12T03:08:36.344Z,11.30
2023-04-12T03:11:22.165Z,11.40
2023-04-12T03:14:08.314Z,11.50
2023-04-12T03:16:54.004Z,11.50
2023-04-12T03:19:40.104Z,11.60
2023-04-12T03:22:26.191Z,11.60
2023-04-12T03:25:20.220Z,11.50
2023-04-12T03:28:12.635Z,11.50
2023-04-12T03:31:06.596Z,11.40
2023-04-12T03:34:04.053Z,11.40
2023-04-12T03:36:49.768Z,11.30
2023-04-12T03:39:47.985Z,11.10
2023-04-12T03:42:40.763Z,11.10
2023-04-12T03:45:31.575Z,11.10
2023-04-12T03:48:20.057Z,11.10
2023-04-12T03:51:07.851Z,11.10
2023-04-12T03:53:57.144Z,11.10
2023-04-12T03:56:44.250Z,11.20
2023-04-12T03:59:38.712Z,11.10
2023-04-12T04:02:25.252Z,11.20
2023-04-12T04:05:13.518Z,11.20
2023-04-12T04:08:02.565Z,11.20
2023-04-12T04:10:54.633Z,11.20
2023-04-12T04:13:46.759Z,11.20
2023-04-12T04:16:37.389Z,11.20
2023-04-12T04:19:25.492Z,11.20
2023-04-12T04:22:12.429Z,11.20
2023-04-12T04:24:58.443Z,11.10
2023-04-12T04:27:45.018Z,11.00
2023-04-12T04:30:34.244Z,10.90
2023-04-12T04:33:21.580Z,10.90
2023-04-12T04:36:08.074Z,10.70
2023-04-12T04:38:54.149Z,10.80
2023-04-12T04:41:54.856Z,10.80
2023-04-12T04:45:13.733Z,10.90
2023-04-12T04:48:03.735Z,10.90
2023-04-12T04:50:51.772Z,11.00
2023-04-12T04:53:40.994Z,11.00
2023-04-12T04:56:29.624Z,11.00
2023-04-12T04:59:15.001Z,11.10
2023-04-12T05:02:00.804Z,11.10
2023-04-12T05:04:46.443Z,11.10
2023-04-12T05:07:36.926Z,11.00
2023-04-12T05:10:23.070Z,11.00
2023-04-12T05:13:10.021Z,11.10
2023-04-12T05:15:55.487Z,11.10
2023-04-12T05:18:41.174Z,11.10
2023-04-12T05:21:27.316Z,11.10
2023-04-12T05:24:12.936Z,11.20
2023-04-12T05:27:00.695Z,11.20
2023-04-12T05:29:47.309Z,11.20
2023-04-12T05:32:35.801Z,11.30
2023-04-12T05:35:22.361Z,11.30
2023-04-12T05:38:11.622Z,11.40
2023-04-12T05:40:57.894Z,11.50
2023-04-12T05:43:43.476Z,11.50
2023-04-12T05:46:29.717Z,11.50
2023-04-12T05:49:16.221Z,11.50
2023-04-12T05:52:02.482Z,11.60
2023-04-12T05:54:49.285Z,11.60
2023-04-12T05:57:37.308Z,11.70
2023-04-12T06:00:23.614Z,11.80
2023-04-12T06:03:11.674Z,11.90
2023-04-12T06:05:59.185Z,11.90
2023-04-12T06:08:44.562Z,12.00
2023-04-12T06:11:31.844Z,11.90
2023-04-12T06:14:17.775Z,11.90
2023-04-12T06:17:04.740Z,12.00
2023-04-12T06:19:50.448Z,12.00
2023-04-12T06:22:36.452Z,12.00
2023-04-12T06:25:23.158Z,12.10
2023-04-12T06:28:26.701Z,12.10
2023-04-12T06:31:13.038Z,12.10
2023-04-12T06:34:01.158Z,12.10
2023-04-12T06:36:47.943Z,12.20
2023-04-12T06:39:33.689Z,12.10
2023-04-12T06:42:19.436Z,12.20
2023-04-12T06:45:05.468Z,12.20
2023-04-12T06:47:51.183Z,12.20
2023-04-12T06:50:36.897Z,12.30
2023-04-12T06:53:23.120Z,12.30
2023-04-12T06:56:08.913Z,12.40
2023-04-12T06:58:55.162Z,12.40
2023-04-12T07:01:41.978Z,12.30
2023-04-12T07:04:29.020Z,12.30
2023-04-12T07:07:14.597Z,12.30
2023-04-12T07:10:00.805Z,12.30
2023-04-12T07:12:46.982Z,12.40
2023-04-12T07:15:32.741Z,12.40
2023-04-12T07:18:18.561Z,12.40
2023-04-12T07:21:04.106Z,12.40
2023-04-12T07:23:51.336Z,12.40
2023-04-12T07:26:36.926Z,12.40
2023-04-12T07:29:22.532Z,12.50
2023-04-12T07:32:08.983Z,12.40
2023-04-12T07:34:54.389Z,12.50
2023-04-12T07:37:40.357Z,12.50
2023-04-12T07:40:25.833Z,12.50
2023-04-12T07:43:11.637Z,12.60
2023-04-12T07:45:57.107Z,12.60
2023-04-12T07:48:43.731Z,12.70
2023-04-12T07:51:29.404Z,12.70
2023-04-12T07:54:15.143Z,12.70
2023-04-12T07:57:01.715Z,12.50
2023-04-12T07:59:47.775Z,12.50
2023-04-12T08:02:33.288Z,12.40
2023-04-12T08:05:19.149Z,12.30
2023-04-12T08:08:04.912Z,12.40
2023-04-12T08:15:29.931Z,12.50
2023-04-12T08:18:16.142Z,12.60
2023-04-12T08:21:01.828Z,12.60
2023-04-12T08:23:47.280Z,12.40
2023-04-12T08:26:33.067Z,12.40
2023-04-12T08:29:18.717Z,12.40
2023-04-12T08:32:05.281Z,12.50
2023-04-12T08:34:51.008Z,12.50
2023-04-12T08:42:17.120Z,12.50
2023-04-12T08:45:06.346Z,12.80
2023-04-12T08:47:52.217Z,13.00
2023-04-12T08:50:37.543Z,13.10
2023-04-12T08:58:00.199Z,13.10
2023-04-12T09:05:49.847Z,13.10
2023-04-12T09:08:36.093Z,13.20
2023-04-12T09:11:26.577Z,13.30
2023-04-12T09:14:25.869Z,13.30
2023-04-12T09:17:24.787Z,13.50
2023-04-12T09:25:16.036Z,13.60
2023-04-12T09:28:01.727Z,13.70
2023-04-12T09:30:51.788Z,13.70
2023-04-12T09:33:38.140Z,13.80
2023-04-12T09:36:37.348Z,13.70
2023-04-12T09:39:41.346Z,13.70
2023-04-12T09:42:33.434Z,13.70
2023-04-12T09:45:25.552Z,13.80
2023-04-12T17:35:00.644Z,15.40
2023-04-12T17:37:46.967Z,15.40
2023-04-12T17:40:32.681Z,15.30
2023-04-12T17:43:18.463Z,15.30
2023-04-12T17:46:04.371Z,15.30
2023-04-12T17:48:50.161Z,15.20
2023-04-12T17:51:35.853Z,15.30
2023-04-12T17:54:21.811Z,15.20
2023-04-12T17:57:07.695Z,15.20
2023-04-12T17:59:53.290Z,15.30
2023-04-12T18:02:39.900Z,15.20
2023-04-12T18:05:25.900Z,15.30
2023-04-12T18:08:11.943Z,15.30
2023-04-12T18:10:57.961Z,15.30
2023-04-12T18:13:43.489Z,15.30
2023-04-12T18:16:29.381Z,15.30
2023-04-12T18:19:16.186Z,15.30
2023-04-12T18:22:01.811Z,15.20
2023-04-12T18:24:47.320Z,15.20
2023-04-12T18:27:33.125Z,15.20
2023-04-12T18:30:19.521Z,15.20
2023-04-12T18:33:08.172Z,15.10
2023-04-12T18:35:54.352Z,15.10
2023-04-12T18:38:40.325Z,15.10
2023-04-12T18:41:25.879Z,15.10
2023-04-12T18:44:15.494Z,15.00
2023-04-12T18:47:01.507Z,15.10
2023-04-12T18:49:48.160Z,15.00
2023-04-12T18:52:34.769Z,15.00
2023-04-12T18:55:21.099Z,15.00
2023-04-12T18:58:07.082Z,15.00
2023-04-12T19:00:54.394Z,14.90
2023-04-12T19:03:39.831Z,15.00
2023-04-12T19:06:25.575Z,15.00
2023-04-12T19:09:11.370Z,15.00
2023-04-12T19:11:57.080Z,15.00
2023-04-12T19:14:42.817Z,15.00
2023-04-12T19:17:29.435Z,15.00
2023-04-12T19:20:15.130Z,15.00
2023-04-12T19:23:00.840Z,15.00
2023-04-12T19:25:47.222Z,15.00
2023-04-12T19:28:33.112Z,14.90
2023-04-12T19:31:19.115Z,15.00
2023-04-12T19:34:05.859Z,15.00
2023-04-12T19:36:51.756Z,15.00
2023-04-12T19:39:39.378Z,15.00
2023-04-12T19:42:24.952Z,15.00
2023-04-12T19:45:10.568Z,14.90
2023-04-12T19:47:56.523Z,15.00
2023-04-12T19:50:42.960Z,15.00
2023-04-12T19:53:28.499Z,14.90
2023-04-12T19:56:15.146Z,14.80
2023-04-12T19:59:01.146Z,14.80
2023-04-12T20:01:50.458Z,14.80
2023-04-12T20:04:36.051Z,14.80
2023-04-12T20:07:21.531Z,14.70
2023-04-12T20:10:10.485Z,14.70
2023-04-12T20:12:56.220Z,14.70
2023-04-12T20:15:45.074Z,14.70
2023-04-12T20:18:30.542Z,14.60
2023-04-12T20:21:16.138Z,14.60
2023-04-12T20:24:02.587Z,14.50
2023-04-12T20:26:48.135Z,14.50
2023-04-12T20:29:34.812Z,14.40
2023-04-12T20:32:20.403Z,14.40
2023-04-12T20:35:06.648Z,14.50
2023-04-12T20:37:52.937Z,14.50
2023-04-12T20:40:39.842Z,14.60
2023-04-12T20:43:27.205Z,14.60
2023-04-12T20:46:16.919Z,14.60
2023-04-12T20:49:05.206Z,14.60
2023-04-12T20:51:50.739Z,14.60
2023-04-12T20:54:36.642Z,14.60
2023-04-12T20:57:22.159Z,14.60
2023-04-12T21:00:17.770Z,14.50
2023-04-12T21:03:04.165Z,14.40
2023-04-12T21:05:51.011Z,14.30
2023-04-12T21:08:36.676Z,14.30
2023-04-12T21:11:22.221Z,14.30
2023-04-12T21:14:10.794Z,14.30
2023-04-12T21:16:56.812Z,14.30
2023-04-12T21:19:44.882Z,14.30
2023-04-12T21:22:30.835Z,14.30
2023-04-12T21:25:16.990Z,14.20
2023-04-12T21:28:03.536Z,14.10
2023-04-12T21:30:54.882Z,14.10
2023-04-12T21:33:40.642Z,14.10
2023-04-12T21:36:30.262Z,14.10
2023-04-12T21:39:16.279Z,14.10
2023-04-12T21:42:02.027Z,14.00
2023-04-12T21:44:47.613Z,14.00
2023-04-12T21:47:33.634Z,14.00
2023-04-12T21:50:19.167Z,14.00
2023-04-12T21:53:04.827Z,14.00
2023-04-12T21:55:50.873Z,14.00
2023-04-12T21:58:36.536Z,14.00
2023-04-12T22:01:22.345Z,13.90
2023-04-12T22:04:08.047Z,13.90
2023-04-12T22:06:55.695Z,13.90
2023-04-12T22:09:41.502Z,13.80
2023-04-12T22:12:27.290Z,13.80
2023-04-12T22:15:13.625Z,13.80
2023-04-12T22:17:59.291Z,13.70
2023-04-12T22:20:46.012Z,13.70
2023-04-12T22:23:31.973Z,13.60
2023-04-12T22:26:17.662Z,13.50
2023-04-12T22:29:04.815Z,13.60
2023-04-12T22:31:51.664Z,13.60
2023-04-12T22:34:37.390Z,13.60
2023-04-12T22:37:22.870Z,13.70
2023-04-12T22:40:12.495Z,13.70
2023-04-12T22:42:58.130Z,13.60
2023-04-12T22:45:46.180Z,13.70
2023-04-12T22:48:34.609Z,13.60
2023-04-12T22:51:20.327Z,13.60
2023-04-12T22:54:09.497Z,13.60
2023-04-12T22:56:55.426Z,13.60
2023-04-12T22:59:41.255Z,13.60
2023-04-12T23:02:26.787Z,13.50
2023-04-12T23:05:12.804Z,13.50
2023-04-12T23:07:58.203Z,13.40
2023-04-12T23:10:44.059Z,13.40
2023-04-12T23:13:35.417Z,13.20
2023-04-12T23:16:22.462Z,13.20
2023-04-12T23:19:07.892Z,13.10
2023-04-12T23:21:54.544Z,13.20
2023-04-12T23:24:40.151Z,13.20
2023-04-12T23:27:25.863Z,13.20
2023-04-12T23:30:12.303Z,13.20
2023-04-12T23:32:58.442Z,13.30
2023-04-12T23:35:45.186Z,13.30
2023-04-12T23:38:34.671Z,13.30
2023-04-12T23:41:20.201Z,13.30
2023-04-12T23:44:06.541Z,13.20
2023-04-12T23:46:52.166Z,13.10
2023-04-12T23:49:37.990Z,13.00
2023-04-12T23:52:23.782Z,13.00
2023-04-12T23:55:09.555Z,13.00
2023-04-12T23:57:55.332Z,12.90
